La Grande, Oregon
Current Conditions -  °F | °C
As of 6:35 AM on Monday 26 Jan 2015 (Local Time) from KLGD Reporting Station
Scattered Clouds Scattered Clouds  
Wind Chill: 31°   Ceiling: Unl
Heat Index: 41°   Visibility: 10mi
Dew Point: 28°   Wind: 23mph
Humidity: 61%   Direction: 170°S
Pressure: 30.19"   Gusts: 39mph
Location:  45.33°N, 118.09°W
Report Text: KLGD 261435Z AUTO 17020G34KT 10SM FEW025 SCT034 05/M02 A3019 RMK AO1
Loading
Personal Weather Stations






























Interactive Weather Map New forecast layout! Learn more

10-Day Weather Forecast

Advertisements
Track Severe Weather on mobile